sensor_id;sensor_type;location;lat;lon;timestamp;P1;durP1;ratioP1;P2;durP2;ratioP2
75311;SDS011;63906;55.686;37.532;2023-09-19T00:04:23;6.27;;;3.97;;
75311;SDS011;63906;55.686;37.532;2023-09-19T00:09:29;5.68;;;3.65;;
75311;SDS011;63906;55.686;37.532;2023-09-19T00:14:30;4.68;;;3.58;;
75311;SDS011;63906;55.686;37.532;2023-09-19T00:19:30;5.70;;;4.10;;
75311;SDS011;63906;55.686;37.532;2023-09-19T00:24:30;6.20;;;3.30;;
75311;SDS011;63906;55.686;37.532;2023-09-19T00:29:31;6.82;;;3.95;;
75311;SDS011;63906;55.686;37.532;2023-09-19T00:34:33;6.75;;;4.32;;
75311;SDS011;63906;55.686;37.532;2023-09-19T00:39:34;6.40;;;4.68;;
75311;SDS011;63906;55.686;37.532;2023-09-19T00:44:35;5.68;;;4.32;;
75311;SDS011;63906;55.686;37.532;2023-09-19T00:49:37;5.60;;;3.33;;
75311;SDS011;63906;55.686;37.532;2023-09-19T00:54:38;11.25;;;6.97;;
75311;SDS011;63906;55.686;37.532;2023-09-19T00:59:39;17.90;;;10.25;;
75311;SDS011;63906;55.686;37.532;2023-09-19T01:04:40;15.27;;;8.80;;
75311;SDS011;63906;55.686;37.532;2023-09-19T01:09:42;15.43;;;9.98;;
75311;SDS011;63906;55.686;37.532;2023-09-19T01:30:44;21.38;;;12.65;;
75311;SDS011;63906;55.686;37.532;2023-09-19T01:35:47;22.67;;;12.80;;
75311;SDS011;63906;55.686;37.532;2023-09-19T01:40:58;19.80;;;13.27;;
75311;SDS011;63906;55.686;37.532;2023-09-19T01:51:27;25.08;;;15.13;;
75311;SDS011;63906;55.686;37.532;2023-09-19T01:56:34;27.65;;;16.40;;
75311;SDS011;63906;55.686;37.532;2023-09-19T02:01:38;28.67;;;15.90;;
75311;SDS011;63906;55.686;37.532;2023-09-19T02:06:41;26.08;;;16.67;;
75311;SDS011;63906;55.686;37.532;2023-09-19T02:11:42;28.48;;;16.52;;
75311;SDS011;63906;55.686;37.532;2023-09-19T02:16:42;24.73;;;14.93;;
75311;SDS011;63906;55.686;37.532;2023-09-19T02:21:43;23.25;;;14.10;;
75311;SDS011;63906;55.686;37.532;2023-09-19T02:26:43;22.27;;;13.67;;
75311;SDS011;63906;55.686;37.532;2023-09-19T02:31:44;25.93;;;14.13;;
75311;SDS011;63906;55.686;37.532;2023-09-19T02:36:46;25.48;;;15.13;;
75311;SDS011;63906;55.686;37.532;2023-09-19T02:41:47;26.35;;;14.80;;
75311;SDS011;63906;55.686;37.532;2023-09-19T02:46:47;23.77;;;14.13;;
75311;SDS011;63906;55.686;37.532;2023-09-19T02:51:47;26.87;;;15.00;;
75311;SDS011;63906;55.686;37.532;2023-09-19T02:56:48;27.98;;;14.95;;
75311;SDS011;63906;55.686;37.532;2023-09-19T03:01:49;27.13;;;14.10;;
75311;SDS011;63906;55.686;37.532;2023-09-19T03:06:50;29.48;;;15.98;;
75311;SDS011;63906;55.686;37.532;2023-09-19T03:11:51;28.52;;;14.90;;
75311;SDS011;63906;55.686;37.532;2023-09-19T03:16:51;26.20;;;15.20;;
75311;SDS011;63906;55.686;37.532;2023-09-19T03:21:52;26.25;;;15.15;;
75311;SDS011;63906;55.686;37.532;2023-09-19T03:26:53;25.35;;;13.75;;
75311;SDS011;63906;55.686;37.532;2023-09-19T03:31:54;27.90;;;14.25;;
75311;SDS011;63906;55.686;37.532;2023-09-19T03:36:54;25.02;;;13.40;;
75311;SDS011;63906;55.686;37.532;2023-09-19T03:41:55;28.73;;;15.77;;
75311;SDS011;63906;55.686;37.532;2023-09-19T03:46:56;28.40;;;14.97;;
75311;SDS011;63906;55.686;37.532;2023-09-19T03:51:57;29.35;;;14.65;;
75311;SDS011;63906;55.686;37.532;2023-09-19T03:56:57;25.60;;;13.63;;
75311;SDS011;63906;55.686;37.532;2023-09-19T04:01:57;29.60;;;13.80;;
75311;SDS011;63906;55.686;37.532;2023-09-19T04:06:59;32.30;;;15.52;;
75311;SDS011;63906;55.686;37.532;2023-09-19T04:11:59;34.70;;;18.27;;
75311;SDS011;63906;55.686;37.532;2023-09-19T04:17:00;33.07;;;17.00;;
75311;SDS011;63906;55.686;37.532;2023-09-19T04:22:00;32.07;;;15.93;;
75311;SDS011;63906;55.686;37.532;2023-09-19T04:27:01;32.78;;;15.00;;
75311;SDS011;63906;55.686;37.532;2023-09-19T04:32:03;28.33;;;15.38;;
75311;SDS011;63906;55.686;37.532;2023-09-19T04:37:06;26.58;;;13.45;;
75311;SDS011;63906;55.686;37.532;2023-09-19T04:42:06;23.83;;;12.47;;
75311;SDS011;63906;55.686;37.532;2023-09-19T04:47:06;19.93;;;11.33;;
75311;SDS011;63906;55.686;37.532;2023-09-19T04:52:07;20.97;;;11.57;;
75311;SDS011;63906;55.686;37.532;2023-09-19T04:57:07;20.53;;;10.33;;
75311;SDS011;63906;55.686;37.532;2023-09-19T05:02:08;20.65;;;11.38;;
75311;SDS011;63906;55.686;37.532;2023-09-19T05:07:08;18.92;;;11.18;;
75311;SDS011;63906;55.686;37.532;2023-09-19T05:12:10;19.20;;;10.85;;
75311;SDS011;63906;55.686;37.532;2023-09-19T05:17:11;19.43;;;11.10;;
75311;SDS011;63906;55.686;37.532;2023-09-19T05:22:11;18.08;;;10.10;;
75311;SDS011;63906;55.686;37.532;2023-09-19T05:27:12;16.73;;;8.82;;
75311;SDS011;63906;55.686;37.532;2023-09-19T05:32:13;17.80;;;10.53;;
75311;SDS011;63906;55.686;37.532;2023-09-19T05:37:13;17.00;;;10.37;;
75311;SDS011;63906;55.686;37.532;2023-09-19T05:42:16;15.10;;;9.48;;
75311;SDS011;63906;55.686;37.532;2023-09-19T05:47:17;18.20;;;10.07;;
75311;SDS011;63906;55.686;37.532;2023-09-19T05:52:18;15.43;;;9.00;;
75311;SDS011;63906;55.686;37.532;2023-09-19T05:57:19;17.55;;;9.77;;
75311;SDS011;63906;55.686;37.532;2023-09-19T06:02:20;17.00;;;10.35;;
75311;SDS011;63906;55.686;37.532;2023-09-19T06:07:20;17.70;;;10.13;;
75311;SDS011;63906;55.686;37.532;2023-09-19T06:12:26;16.35;;;10.10;;
75311;SDS011;63906;55.686;37.532;2023-09-19T06:17:26;15.83;;;9.67;;
75311;SDS011;63906;55.686;37.532;2023-09-19T06:22:28;15.55;;;9.73;;
75311;SDS011;63906;55.686;37.532;2023-09-19T06:27:29;15.73;;;9.32;;
75311;SDS011;63906;55.686;37.532;2023-09-19T06:32:29;15.53;;;9.30;;
75311;SDS011;63906;55.686;37.532;2023-09-19T06:37:30;17.03;;;11.03;;
75311;SDS011;63906;55.686;37.532;2023-09-19T06:42:30;16.58;;;9.05;;
75311;SDS011;63906;55.686;37.532;2023-09-19T06:47:31;16.83;;;9.75;;
75311;SDS011;63906;55.686;37.532;2023-09-19T06:52:32;12.65;;;8.13;;
75311;SDS011;63906;55.686;37.532;2023-09-19T06:57:35;14.63;;;9.25;;
75311;SDS011;63906;55.686;37.532;2023-09-19T07:02:36;13.53;;;8.67;;
75311;SDS011;63906;55.686;37.532;2023-09-19T07:07:36;16.83;;;11.23;;
75311;SDS011;63906;55.686;37.532;2023-09-19T07:12:37;14.48;;;9.95;;
75311;SDS011;63906;55.686;37.532;2023-09-19T07:17:37;17.13;;;9.52;;
75311;SDS011;63906;55.686;37.532;2023-09-19T07:22:38;15.45;;;10.60;;
75311;SDS011;63906;55.686;37.532;2023-09-19T07:27:40;20.65;;;11.60;;
75311;SDS011;63906;55.686;37.532;2023-09-19T07:42:42;16.10;;;10.20;;
75311;SDS011;63906;55.686;37.532;2023-09-19T07:47:47;14.68;;;9.70;;
75311;SDS011;63906;55.686;37.532;2023-09-19T07:52:50;15.80;;;10.73;;
75311;SDS011;63906;55.686;37.532;2023-09-19T07:57:54;17.73;;;11.73;;
75311;SDS011;63906;55.686;37.532;2023-09-19T08:02:55;16.27;;;11.05;;
75311;SDS011;63906;55.686;37.532;2023-09-19T08:07:55;16.17;;;10.98;;
75311;SDS011;63906;55.686;37.532;2023-09-19T08:12:56;15.02;;;11.68;;
75311;SDS011;63906;55.686;37.532;2023-09-19T08:17:58;16.48;;;9.95;;
75311;SDS011;63906;55.686;37.532;2023-09-19T08:22:59;15.80;;;10.45;;
75311;SDS011;63906;55.686;37.532;2023-09-19T08:27:59;15.32;;;9.63;;
75311;SDS011;63906;55.686;37.532;2023-09-19T08:33:01;13.65;;;9.43;;
75311;SDS011;63906;55.686;37.532;2023-09-19T08:38:05;12.50;;;8.63;;
75311;SDS011;63906;55.686;37.532;2023-09-19T08:43:06;13.90;;;9.13;;
75311;SDS011;63906;55.686;37.532;2023-09-19T08:58:34;11.77;;;8.15;;
75311;SDS011;63906;55.686;37.532;2023-09-19T09:04:11;12.48;;;8.20;;
75311;SDS011;63906;55.686;37.532;2023-09-19T09:09:15;11.88;;;8.93;;
75311;SDS011;63906;55.686;37.532;2023-09-19T09:14:17;13.90;;;9.25;;
75311;SDS011;63906;55.686;37.532;2023-09-19T09:19:18;13.23;;;8.90;;
75311;SDS011;63906;55.686;37.532;2023-09-19T09:24:30;12.23;;;9.27;;
75311;SDS011;63906;55.686;37.532;2023-09-19T09:29:50;13.30;;;9.50;;
75311;SDS011;63906;55.686;37.532;2023-09-19T09:34:58;14.90;;;10.40;;
75311;SDS011;63906;55.686;37.532;2023-09-19T09:40:00;14.40;;;10.18;;
75311;SDS011;63906;55.686;37.532;2023-09-19T09:45:31;13.80;;;8.85;;
75311;SDS011;63906;55.686;37.532;2023-09-19T09:50:35;12.77;;;8.68;;
75311;SDS011;63906;55.686;37.532;2023-09-19T10:01:10;13.82;;;9.88;;
75311;SDS011;63906;55.686;37.532;2023-09-19T10:06:11;13.40;;;8.40;;
75311;SDS011;63906;55.686;37.532;2023-09-19T10:11:42;8.90;;;7.60;;
75311;SDS011;63906;55.686;37.532;2023-09-19T10:16:45;13.38;;;9.05;;
75311;SDS011;63906;55.686;37.532;2023-09-19T10:21:47;10.75;;;6.90;;
75311;SDS011;63906;55.686;37.532;2023-09-19T10:26:49;7.38;;;6.18;;
75311;SDS011;63906;55.686;37.532;2023-09-19T10:31:50;9.73;;;5.68;;
75311;SDS011;63906;55.686;37.532;2023-09-19T10:36:53;9.57;;;6.43;;
75311;SDS011;63906;55.686;37.532;2023-09-19T10:41:57;9.40;;;6.40;;
75311;SDS011;63906;55.686;37.532;2023-09-19T10:47:05;8.23;;;6.10;;
75311;SDS011;63906;55.686;37.532;2023-09-19T10:52:07;9.38;;;6.97;;
75311;SDS011;63906;55.686;37.532;2023-09-19T10:57:11;9.15;;;6.25;;
75311;SDS011;63906;55.686;37.532;2023-09-19T11:02:17;9.20;;;6.45;;
75311;SDS011;63906;55.686;37.532;2023-09-19T11:07:17;6.80;;;4.95;;
75311;SDS011;63906;55.686;37.532;2023-09-19T11:39:18;9.30;;;6.97;;
75311;SDS011;63906;55.686;37.532;2023-09-19T11:49:07;7.75;;;5.70;;
75311;SDS011;63906;55.686;37.532;2023-09-19T11:54:10;9.27;;;7.07;;
75311;SDS011;63906;55.686;37.532;2023-09-19T11:59:29;9.55;;;7.03;;
75311;SDS011;63906;55.686;37.532;2023-09-19T12:04:43;8.30;;;6.20;;
75311;SDS011;63906;55.686;37.532;2023-09-19T12:09:49;8.38;;;6.20;;
75311;SDS011;63906;55.686;37.532;2023-09-19T12:20:04;7.80;;;6.45;;
75311;SDS011;63906;55.686;37.532;2023-09-19T12:25:14;8.02;;;6.00;;
75311;SDS011;63906;55.686;37.532;2023-09-19T12:30:17;9.93;;;6.35;;
75311;SDS011;63906;55.686;37.532;2023-09-19T12:35:30;9.43;;;5.97;;
75311;SDS011;63906;55.686;37.532;2023-09-19T12:40:35;10.15;;;6.65;;
75311;SDS011;63906;55.686;37.532;2023-09-19T12:45:38;10.75;;;6.68;;
75311;SDS011;63906;55.686;37.532;2023-09-19T12:50:58;8.85;;;5.93;;
75311;SDS011;63906;55.686;37.532;2023-09-19T12:56:00;6.15;;;5.50;;
75311;SDS011;63906;55.686;37.532;2023-09-19T13:01:01;6.22;;;4.70;;
75311;SDS011;63906;55.686;37.532;2023-09-19T13:06:05;5.95;;;4.93;;
75311;SDS011;63906;55.686;37.532;2023-09-19T13:11:10;4.82;;;4.32;;
75311;SDS011;63906;55.686;37.532;2023-09-19T13:16:12;8.07;;;4.90;;
75311;SDS011;63906;55.686;37.532;2023-09-19T13:21:37;6.07;;;4.38;;
75311;SDS011;63906;55.686;37.532;2023-09-19T13:26:45;6.22;;;4.30;;
75311;SDS011;63906;55.686;37.532;2023-09-19T13:31:46;8.07;;;4.93;;
75311;SDS011;63906;55.686;37.532;2023-09-19T13:36:53;6.85;;;5.25;;
75311;SDS011;63906;55.686;37.532;2023-09-19T13:41:54;6.20;;;5.45;;
75311;SDS011;63906;55.686;37.532;2023-09-19T13:46:55;6.70;;;4.68;;
75311;SDS011;63906;55.686;37.532;2023-09-19T13:51:57;7.97;;;6.18;;
75311;SDS011;63906;55.686;37.532;2023-09-19T13:56:58;8.20;;;5.88;;
75311;SDS011;63906;55.686;37.532;2023-09-19T14:01:58;10.32;;;5.65;;
75311;SDS011;63906;55.686;37.532;2023-09-19T14:06:59;8.07;;;4.97;;
75311;SDS011;63906;55.686;37.532;2023-09-19T14:17:01;7.85;;;5.97;;
75311;SDS011;63906;55.686;37.532;2023-09-19T14:22:02;9.63;;;6.03;;
75311;SDS011;63906;55.686;37.532;2023-09-19T14:27:07;8.65;;;5.55;;
75311;SDS011;63906;55.686;37.532;2023-09-19T14:32:12;9.55;;;6.60;;
75311;SDS011;63906;55.686;37.532;2023-09-19T14:37:12;7.75;;;5.75;;
75311;SDS011;63906;55.686;37.532;2023-09-19T14:42:14;7.75;;;5.22;;
75311;SDS011;63906;55.686;37.532;2023-09-19T14:47:17;9.02;;;5.97;;
75311;SDS011;63906;55.686;37.532;2023-09-19T14:52:19;10.30;;;6.97;;
75311;SDS011;63906;55.686;37.532;2023-09-19T14:57:20;8.18;;;6.55;;
75311;SDS011;63906;55.686;37.532;2023-09-19T15:02:24;7.25;;;5.10;;
75311;SDS011;63906;55.686;37.532;2023-09-19T15:07:27;7.25;;;5.10;;
75311;SDS011;63906;55.686;37.532;2023-09-19T15:12:29;7.85;;;5.18;;
75311;SDS011;63906;55.686;37.532;2023-09-19T15:17:33;10.13;;;6.28;;
75311;SDS011;63906;55.686;37.532;2023-09-19T15:22:37;6.70;;;4.93;;
75311;SDS011;63906;55.686;37.532;2023-09-19T15:27:38;6.25;;;4.70;;
75311;SDS011;63906;55.686;37.532;2023-09-19T15:32:38;4.43;;;3.50;;
75311;SDS011;63906;55.686;37.532;2023-09-19T15:37:39;6.00;;;4.07;;
75311;SDS011;63906;55.686;37.532;2023-09-19T15:42:40;7.15;;;5.07;;
75311;SDS011;63906;55.686;37.532;2023-09-19T15:47:42;6.18;;;4.25;;
75311;SDS011;63906;55.686;37.532;2023-09-19T15:52:43;6.15;;;3.72;;
75311;SDS011;63906;55.686;37.532;2023-09-19T15:57:45;6.55;;;4.40;;
75311;SDS011;63906;55.686;37.532;2023-09-19T16:02:47;6.60;;;4.50;;
75311;SDS011;63906;55.686;37.532;2023-09-19T16:07:50;5.55;;;3.75;;
75311;SDS011;63906;55.686;37.532;2023-09-19T16:12:51;5.22;;;3.95;;
75311;SDS011;63906;55.686;37.532;2023-09-19T16:17:51;4.13;;;2.67;;
75311;SDS011;63906;55.686;37.532;2023-09-19T16:22:52;4.23;;;2.57;;
75311;SDS011;63906;55.686;37.532;2023-09-19T16:27:52;3.40;;;2.35;;
75311;SDS011;63906;55.686;37.532;2023-09-19T16:32:53;3.03;;;1.90;;
75311;SDS011;63906;55.686;37.532;2023-09-19T16:37:53;3.30;;;2.37;;
75311;SDS011;63906;55.686;37.532;2023-09-19T16:42:53;3.07;;;1.83;;
75311;SDS011;63906;55.686;37.532;2023-09-19T16:47:54;3.33;;;2.47;;
75311;SDS011;63906;55.686;37.532;2023-09-19T16:52:55;6.93;;;4.35;;
75311;SDS011;63906;55.686;37.532;2023-09-19T16:57:58;6.63;;;4.88;;
75311;SDS011;63906;55.686;37.532;2023-09-19T17:03:01;5.45;;;3.63;;
75311;SDS011;63906;55.686;37.532;2023-09-19T17:08:03;9.70;;;5.93;;
75311;SDS011;63906;55.686;37.532;2023-09-19T17:13:04;12.63;;;7.30;;
75311;SDS011;63906;55.686;37.532;2023-09-19T17:18:08;15.20;;;8.18;;
75311;SDS011;63906;55.686;37.532;2023-09-19T17:23:09;10.70;;;7.00;;
75311;SDS011;63906;55.686;37.532;2023-09-19T17:28:09;8.70;;;6.47;;
75311;SDS011;63906;55.686;37.532;2023-09-19T17:33:09;11.93;;;7.80;;
75311;SDS011;63906;55.686;37.532;2023-09-19T17:38:10;10.40;;;7.17;;
75311;SDS011;63906;55.686;37.532;2023-09-19T17:43:10;10.05;;;6.60;;
75311;SDS011;63906;55.686;37.532;2023-09-19T17:48:11;8.23;;;6.43;;
75311;SDS011;63906;55.686;37.532;2023-09-19T17:53:12;9.55;;;5.90;;
75311;SDS011;63906;55.686;37.532;2023-09-19T17:58:12;8.90;;;5.93;;
75311;SDS011;63906;55.686;37.532;2023-09-19T18:03:13;8.70;;;6.47;;
75311;SDS011;63906;55.686;37.532;2023-09-19T18:08:13;11.65;;;7.10;;
75311;SDS011;63906;55.686;37.532;2023-09-19T18:13:14;8.65;;;5.78;;
75311;SDS011;63906;55.686;37.532;2023-09-19T18:18:14;9.38;;;6.55;;
75311;SDS011;63906;55.686;37.532;2023-09-19T18:23:15;7.53;;;5.47;;
75311;SDS011;63906;55.686;37.532;2023-09-19T18:28:15;8.55;;;5.95;;
75311;SDS011;63906;55.686;37.532;2023-09-19T18:33:17;9.15;;;6.28;;
75311;SDS011;63906;55.686;37.532;2023-09-19T18:38:17;9.25;;;6.43;;
75311;SDS011;63906;55.686;37.532;2023-09-19T18:43:20;9.75;;;7.00;;
75311;SDS011;63906;55.686;37.532;2023-09-19T18:48:20;11.25;;;7.55;;
75311;SDS011;63906;55.686;37.532;2023-09-19T18:53:21;11.87;;;7.77;;
75311;SDS011;63906;55.686;37.532;2023-09-19T18:58:22;7.32;;;5.07;;
75311;SDS011;63906;55.686;37.532;2023-09-19T19:03:24;9.55;;;5.88;;
75311;SDS011;63906;55.686;37.532;2023-09-19T19:08:27;9.20;;;6.60;;
75311;SDS011;63906;55.686;37.532;2023-09-19T19:13:27;9.88;;;6.80;;
75311;SDS011;63906;55.686;37.532;2023-09-19T19:18:28;10.85;;;6.95;;
75311;SDS011;63906;55.686;37.532;2023-09-19T19:23:30;10.48;;;6.88;;
75311;SDS011;63906;55.686;37.532;2023-09-19T19:28:31;11.32;;;7.45;;
75311;SDS011;63906;55.686;37.532;2023-09-19T19:33:32;12.07;;;8.00;;
75311;SDS011;63906;55.686;37.532;2023-09-19T19:38:32;11.60;;;7.30;;
75311;SDS011;63906;55.686;37.532;2023-09-19T19:43:33;12.10;;;7.40;;
75311;SDS011;63906;55.686;37.532;2023-09-19T19:48:34;9.70;;;5.63;;
75311;SDS011;63906;55.686;37.532;2023-09-19T19:53:36;9.93;;;7.28;;
75311;SDS011;63906;55.686;37.532;2023-09-19T19:58:38;10.35;;;6.40;;
75311;SDS011;63906;55.686;37.532;2023-09-19T20:03:38;11.93;;;6.45;;
75311;SDS011;63906;55.686;37.532;2023-09-19T20:08:39;10.43;;;6.75;;
75311;SDS011;63906;55.686;37.532;2023-09-19T20:13:39;9.25;;;5.57;;
75311;SDS011;63906;55.686;37.532;2023-09-19T20:18:40;9.10;;;6.10;;
75311;SDS011;63906;55.686;37.532;2023-09-19T20:23:42;8.98;;;6.28;;
75311;SDS011;63906;55.686;37.532;2023-09-19T20:28:47;8.05;;;6.35;;
75311;SDS011;63906;55.686;37.532;2023-09-19T20:33:47;8.05;;;5.93;;
75311;SDS011;63906;55.686;37.532;2023-09-19T20:38:49;11.40;;;6.88;;
75311;SDS011;63906;55.686;37.532;2023-09-19T20:43:50;8.88;;;5.93;;
75311;SDS011;63906;55.686;37.532;2023-09-19T20:48:50;8.77;;;6.00;;
75311;SDS011;63906;55.686;37.532;2023-09-19T20:53:52;7.80;;;5.72;;
75311;SDS011;63906;55.686;37.532;2023-09-19T20:58:53;7.72;;;5.97;;
75311;SDS011;63906;55.686;37.532;2023-09-19T21:03:54;10.68;;;5.97;;
75311;SDS011;63906;55.686;37.532;2023-09-19T21:08:56;7.28;;;5.45;;
75311;SDS011;63906;55.686;37.532;2023-09-19T21:13:57;8.77;;;6.32;;
75311;SDS011;63906;55.686;37.532;2023-09-19T21:18:58;8.15;;;6.07;;
75311;SDS011;63906;55.686;37.532;2023-09-19T21:24:03;9.48;;;6.00;;
75311;SDS011;63906;55.686;37.532;2023-09-19T21:29:05;8.82;;;6.30;;
75311;SDS011;63906;55.686;37.532;2023-09-19T21:34:05;7.45;;;5.68;;
75311;SDS011;63906;55.686;37.532;2023-09-19T21:39:07;7.72;;;5.63;;
75311;SDS011;63906;55.686;37.532;2023-09-19T21:44:08;8.23;;;5.68;;
75311;SDS011;63906;55.686;37.532;2023-09-19T21:49:10;6.88;;;5.30;;
75311;SDS011;63906;55.686;37.532;2023-09-19T21:54:10;9.45;;;5.72;;
75311;SDS011;63906;55.686;37.532;2023-09-19T21:59:11;7.83;;;6.10;;
75311;SDS011;63906;55.686;37.532;2023-09-19T22:04:11;7.07;;;4.70;;
75311;SDS011;63906;55.686;37.532;2023-09-19T22:09:12;8.55;;;6.13;;
75311;SDS011;63906;55.686;37.532;2023-09-19T22:14:13;6.95;;;5.00;;
75311;SDS011;63906;55.686;37.532;2023-09-19T22:19:13;7.43;;;5.63;;
75311;SDS011;63906;55.686;37.532;2023-09-19T22:24:16;7.22;;;5.60;;
75311;SDS011;63906;55.686;37.532;2023-09-19T22:29:20;6.57;;;5.40;;
75311;SDS011;63906;55.686;37.532;2023-09-19T22:34:21;5.22;;;4.70;;
75311;SDS011;63906;55.686;37.532;2023-09-19T22:39:21;7.38;;;5.70;;
75311;SDS011;63906;55.686;37.532;2023-09-19T22:44:25;7.43;;;5.38;;
75311;SDS011;63906;55.686;37.532;2023-09-19T22:49:26;8.07;;;5.13;;
75311;SDS011;63906;55.686;37.532;2023-09-19T22:54:29;8.38;;;5.50;;
75311;SDS011;63906;55.686;37.532;2023-09-19T22:59:35;8.63;;;6.30;;
75311;SDS011;63906;55.686;37.532;2023-09-19T23:04:36;8.80;;;5.68;;
75311;SDS011;63906;55.686;37.532;2023-09-19T23:09:38;8.48;;;5.63;;
75311;SDS011;63906;55.686;37.532;2023-09-19T23:14:38;7.85;;;5.50;;
75311;SDS011;63906;55.686;37.532;2023-09-19T23:19:41;8.82;;;5.38;;
75311;SDS011;63906;55.686;37.532;2023-09-19T23:24:43;6.40;;;4.82;;
75311;SDS011;63906;55.686;37.532;2023-09-19T23:29:44;7.55;;;5.53;;
75311;SDS011;63906;55.686;37.532;2023-09-19T23:34:44;9.40;;;5.38;;
75311;SDS011;63906;55.686;37.532;2023-09-19T23:39:47;6.68;;;5.53;;
75311;SDS011;63906;55.686;37.532;2023-09-19T23:44:47;7.35;;;5.38;;
75311;SDS011;63906;55.686;37.532;2023-09-19T23:49:51;9.45;;;6.35;;
75311;SDS011;63906;55.686;37.532;2023-09-19T23:54:53;6.78;;;5.25;;
75311;SDS011;63906;55.686;37.532;2023-09-19T23:59:53;8.82;;;5.70;;
